Time;durP1;ratioP1;P1;durP2;ratioP2;P2;SDS_P1;SDS_P2;PMS_P1;PMS_P2;Temp;Humidity;BMP_temperature;BMP_pressure;BME280_temperature;BME280_humidity;BME280_pressure;Samples;Min_cycle;Max_cycle;Signal;HPM_P1;HPM_P2
2023/05/17 05:27:14;;;;;;;4.60;1.83;;;6.20;99.90;;;;;;5113539;27;20576;-78
2023/05/17 05:34:37;;;;;;;6.77;2.70;;;6.20;99.90;;;;;;5172649;27;20666;-76
2023/05/17 05:42:03;;;;;;;5.10;2.23;;;6.30;99.90;;;;;;5130847;27;20292;-78
2023/05/17 05:48:07;;;;;;;5.13;2.27;;;6.30;99.90;;;;;;5007398;28;20548;-77
2023/05/17 05:53:51;;;;;;;1.87;1.70;;;6.30;99.90;;;;;;5173623;27;20627;-76
2023/05/17 05:59:30;;;;;;;6.73;2.40;;;6.50;99.90;;;;;;5132335;27;20669;-77
2023/05/17 06:04:47;;;;;;;4.40;1.83;;;6.60;99.90;;;;;;5111942;27;20280;-78
2023/05/17 06:09:06;;;;;;;7.17;2.17;;;6.70;99.90;;;;;;5133331;27;20281;-78
2023/05/17 06:12:47;;;;;;;6.27;2.10;;;6.60;99.90;;;;;;5133014;27;20288;-78
2023/05/17 06:16:44;;;;;;;2.33;1.80;;;6.60;99.90;;;;;;5092281;28;20549;-77
2023/05/17 06:20:41;;;;;;;5.63;1.90;;;6.80;99.90;;;;;;5130589;27;20286;-76
2023/05/17 06:24:40;;;;;;;6.07;2.00;;;6.90;99.90;;;;;;5132339;27;20272;-76
2023/05/17 06:28:39;;;;;;;6.87;1.93;;;7.00;99.90;;;;;;5132556;27;20267;-76
2023/05/17 06:33:37;;;;;;;3.90;1.67;;;7.10;99.90;;;;;;5132368;27;20270;-76
2023/05/17 06:36:03;;;;;;;3.03;1.60;;;7.20;99.90;;;;;;5131878;28;20171;-76
2023/05/17 06:38:29;;;;;;;2.43;1.60;;;7.30;99.90;;;;;;5113412;28;20203;-76
2023/05/17 06:40:57;;;;;;;4.57;1.70;;;7.40;99.90;;;;;;5131192;28;20225;-76
2023/05/17 06:43:23;;;;;;;3.53;1.40;;;7.40;99.90;;;;;;5131647;27;20541;-77
2023/05/17 06:45:49;;;;;;;4.07;1.80;;;7.50;99.90;;;;;;5131511;27;20179;-76
2023/05/17 06:48:15;;;;;;;4.67;1.80;;;7.60;99.90;;;;;;5130274;28;20186;-77
2023/05/17 06:50:40;;;;;;;9.83;1.40;;;7.70;99.90;;;;;;5129874;28;20665;-76
2023/05/17 06:53:06;;;;;;;4.57;1.27;;;7.70;99.90;;;;;;5131336;27;20247;-76
2023/05/17 06:55:32;;;;;;;4.20;1.30;;;;;;;;;;5131355;27;20257;-77
2023/05/17 06:57:59;;;;;;;3.43;1.00;;;7.90;99.90;;;;;;5130052;28;20214;-76
2023/05/17 07:00:25;;;;;;;2.13;1.40;;;;;;;;;;5131058;27;20220;-76
2023/05/17 07:02:51;;;;;;;6.57;1.43;;;8.20;99.90;;;;;;5131032;28;20716;-76
2023/05/17 07:05:16;;;;;;;7.63;1.33;;;7.80;99.90;;;;;;5131795;27;20200;-76
2023/05/17 07:07:42;;;;;;;5.67;1.90;;;8.10;99.90;;;;;;5131165;27;20665;-77
2023/05/17 07:10:08;;;;;;;5.67;1.40;;;8.10;99.90;;;;;;5131084;27;20225;-76
2023/05/17 07:12:34;;;;;;;1.63;1.43;;;8.40;99.90;;;;;;5130875;27;20612;-76
2023/05/17 07:15:00;;;;;;;3.37;1.40;;;;;;;;;;5131175;27;20172;-76
2023/05/17 07:17:25;;;;;;;4.03;1.10;;;8.20;99.90;;;;;;5131119;28;20175;-77
2023/05/17 07:19:51;;;;;;;6.00;2.20;;;8.30;99.90;;;;;;5130541;27;20247;-77
2023/05/17 07:22:18;;;;;;;3.37;1.17;;;8.30;99.90;;;;;;5130993;27;20204;-77
2023/05/17 07:24:44;;;;;;;4.33;1.40;;;8.30;99.90;;;;;;5129456;28;20665;-77
2023/05/17 07:27:10;;;;;;;5.90;1.37;;;8.40;99.90;;;;;;5129386;28;20273;-77
2023/05/17 07:29:36;;;;;;;2.67;1.17;;;8.40;99.90;;;;;;5130441;27;20275;-76
2023/05/17 07:32:02;;;;;;;4.80;1.30;;;8.40;99.90;;;;;;5129011;28;20217;-77
2023/05/17 07:34:29;;;;;;;3.60;1.53;;;8.60;99.90;;;;;;5130514;27;20590;-77
2023/05/17 07:36:54;;;;;;;5.47;1.43;;;8.60;99.90;;;;;;5130782;27;20672;-77
2023/05/17 07:39:20;;;;;;;3.73;1.30;;;8.50;99.90;;;;;;5130597;27;20195;-77
2023/05/17 07:41:46;;;;;;;3.83;1.60;;;8.60;99.90;;;;;;5130347;27;20633;-76
2023/05/17 07:44:12;;;;;;;4.53;1.23;;;;;;;;;;5119901;28;20183;-77
2023/05/17 07:46:37;;;;;;;2.23;1.33;;;8.80;99.90;;;;;;5115196;28;20205;-77
2023/05/17 07:49:03;;;;;;;8.43;1.70;;;9.00;99.90;;;;;;5117251;28;20214;-77
2023/05/17 07:51:30;;;;;;;7.77;1.60;;;9.00;99.90;;;;;;5116250;28;20181;-77
2023/05/17 07:53:56;;;;;;;3.10;1.60;;;9.00;99.90;;;;;;5116521;28;20172;-77
2023/05/17 07:56:21;;;;;;;5.20;1.60;;;9.00;99.90;;;;;;5116383;27;20193;-77
2023/05/17 07:58:47;;;;;;;3.37;1.50;;;8.90;99.90;;;;;;5116395;28;20228;-77
2023/05/17 08:01:13;;;;;;;3.10;1.10;;;8.80;99.90;;;;;;5116269;28;20223;-77
2023/05/17 08:03:46;;;;;;;6.67;1.47;;;8.70;99.90;;;;;;5116435;28;20179;-77
2023/05/17 08:06:12;;;;;;;5.03;1.33;;;8.80;99.90;;;;;;5115421;28;20258;-77
2023/05/17 08:08:38;;;;;;;3.20;1.30;;;8.90;99.90;;;;;;5114871;28;20179;-77
2023/05/17 08:11:04;;;;;;;8.20;1.83;;;9.30;99.90;;;;;;5115784;28;20236;-77
2023/05/17 08:13:29;;;;;;;1.77;1.20;;;9.40;99.90;;;;;;5115933;28;20285;-77
2023/05/17 08:15:58;;;;;;;2.50;1.30;;;9.60;99.90;;;;;;5115976;28;20210;-77
2023/05/17 08:18:24;;;;;;;2.40;1.53;;;9.60;99.90;;;;;;5116023;28;20217;-77
2023/05/17 08:20:50;;;;;;;5.00;1.40;;;9.90;99.90;;;;;;5115721;28;20270;-77
2023/05/17 08:23:15;;;;;;;2.60;1.30;;;10.20;99.90;;;;;;5115790;28;20516;-77
2023/05/17 08:25:41;;;;;;;2.60;1.37;;;10.60;99.90;;;;;;5115968;28;20179;-77
2023/05/17 08:28:07;;;;;;;3.70;1.50;;;10.80;99.90;;;;;;5114452;28;20208;-77
2023/05/17 08:30:32;;;;;;;3.40;1.37;;;11.00;99.90;;;;;;5115485;28;20653;-77
2023/05/17 08:32:59;;;;;;;6.13;1.50;;;10.70;99.90;;;;;;5115590;28;20207;-77
2023/05/17 08:35:25;;;;;;;5.90;2.20;;;10.70;99.90;;;;;;5115602;28;20233;-77
2023/05/17 08:37:50;;;;;;;5.00;1.77;;;10.60;99.90;;;;;;5115565;28;20171;-77
2023/05/17 08:40:18;;;;;;;3.53;1.20;;;10.20;99.90;;;;;;5115350;28;20243;-77
2023/05/17 08:42:45;;;;;;;3.90;1.37;;;10.00;99.90;;;;;;5114020;28;20175;-77
2023/05/17 08:45:12;;;;;;;3.90;1.50;;;10.80;99.90;;;;;;5115863;28;20519;-77
2023/05/17 08:47:41;;;;;;;3.63;1.67;;;12.10;99.90;;;;;;5115388;28;20172;-77
2023/05/17 08:50:07;;;;;;;7.47;1.80;;;12.80;99.90;;;;;;5115138;28;20279;-77
2023/05/17 08:52:36;;;;;;;7.17;1.43;;;12.40;99.90;;;;;;5113936;28;20230;-77
2023/05/17 08:55:02;;;;;;;4.07;1.93;;;11.80;99.90;;;;;;5114441;28;20580;-77
2023/05/17 08:57:30;;;;;;;4.50;1.50;;;11.40;99.90;;;;;;5115188;28;20183;-77
2023/05/17 08:59:59;;;;;;;8.20;2.67;;;11.00;99.90;;;;;;5114963;27;20192;-77
2023/05/17 09:02:27;;;;;;;3.00;1.57;;;11.30;99.90;;;;;;5115190;28;20181;-77
2023/05/17 09:04:54;;;;;;;6.27;1.63;;;11.50;99.90;;;;;;5115340;28;20172;-77
2023/05/17 09:07:23;;;;;;;4.27;1.60;;;11.90;99.90;;;;;;5115131;28;20264;-77
2023/05/17 09:09:53;;;;;;;4.87;1.00;;;12.10;99.90;;;;;;5114893;28;20685;-77
2023/05/17 09:12:22;;;;;;;5.90;1.20;;;12.30;99.90;;;;;;5115205;27;20210;-77
2023/05/17 09:14:48;;;;;;;3.03;1.40;;;12.20;99.90;;;;;;5115053;28;20183;-77
2023/05/17 09:17:19;;;;;;;7.10;1.13;;;11.70;99.90;;;;;;5114973;28;20183;-77
2023/05/17 09:19:47;;;;;;;5.60;1.40;;;11.50;99.90;;;;;;5114694;28;20197;-77
2023/05/17 09:22:14;;;;;;;7.17;1.40;;;11.70;99.90;;;;;;5114827;28;20173;-77
2023/05/17 09:24:41;;;;;;;5.57;1.37;;;12.40;99.90;;;;;;5113647;28;20296;-77
2023/05/17 09:27:07;;;;;;;3.87;1.40;;;12.70;99.90;;;;;;5114773;28;20765;-77
2023/05/17 09:29:34;;;;;;;3.07;1.10;;;12.90;99.90;;;;;;5113213;28;20218;-77
2023/05/17 09:32:23;;;;;;;2.03;1.10;;;12.70;99.90;;;;;;5113149;28;20258;-77
2023/05/17 09:34:50;;;;;;;3.20;1.50;;;12.80;99.90;;;;;;5113410;28;20596;-77
2023/05/17 09:37:17;;;;;;;9.30;1.97;;;12.80;99.90;;;;;;5113446;28;20178;-77
2023/05/17 09:39:44;;;;;;;5.37;1.53;;;13.40;99.90;;;;;;5113160;28;20204;-77
2023/05/17 09:42:15;;;;;;;2.37;1.67;;;13.60;99.90;;;;;;5114485;28;20172;-77
2023/05/17 09:44:48;;;;;;;5.40;1.60;;;13.60;99.90;;;;;;5114535;28;20660;-77
2023/05/17 09:47:31;;;;;;;2.87;1.50;;;13.50;99.90;;;;;;5113128;28;20274;-77
2023/05/17 09:49:59;;;;;;;5.03;1.57;;;13.00;99.90;;;;;;5113551;28;20227;-77
2023/05/17 09:52:30;;;;;;;7.10;1.73;;;12.70;99.90;;;;;;5112914;28;20255;-77
2023/05/17 09:54:58;;;;;;;3.50;1.50;;;12.40;99.90;;;;;;5114911;28;20258;-77
2023/05/17 09:57:26;;;;;;;5.60;1.40;;;12.20;99.90;;;;;;5114211;28;20224;-77
2023/05/17 09:59:56;;;;;;;3.80;1.40;;;12.20;99.90;;;;;;5112891;28;20553;-77
2023/05/17 10:02:30;;;;;;;4.27;1.63;;;12.80;99.90;;;;;;5114196;28;20185;-77
2023/05/17 10:04:57;;;;;;;2.30;1.40;;;13.40;99.90;;;;;;5112758;28;20199;-77
2023/05/17 10:07:24;;;;;;;3.93;1.27;;;13.90;99.90;;;;;;5112611;28;20180;-77
2023/05/17 10:09:52;;;;;;;3.60;1.30;;;13.80;99.90;;;;;;5113883;28;20200;-77
2023/05/17 10:12:21;;;;;;;2.10;1.30;;;13.60;99.90;;;;;;5113834;28;20598;-77
2023/05/17 10:14:47;;;;;;;3.07;1.43;;;13.40;99.90;;;;;;5114485;28;20171;-78
2023/05/17 10:17:14;;;;;;;3.67;1.57;;;13.50;99.90;;;;;;5114097;28;20175;-77
2023/05/17 10:19:40;;;;;;;2.83;1.47;;;13.60;99.90;;;;;;5112656;28;20200;-77
2023/05/17 10:22:07;;;;;;;2.70;1.60;;;13.80;99.90;;;;;;5114246;28;20307;-77
2023/05/17 10:24:37;;;;;;;5.20;1.53;;;14.10;99.90;;;;;;5114124;28;20254;-77
2023/05/17 10:27:06;;;;;;;4.67;1.10;;;14.40;99.90;;;;;;5113694;28;20159;-77
2023/05/17 10:29:33;;;;;;;2.57;1.33;;;14.80;99.90;;;;;;5112301;28;20195;-77
2023/05/17 10:32:04;;;;;;;2.63;1.50;;;14.90;99.90;;;;;;5113445;28;20235;-77
2023/05/17 10:34:31;;;;;;;5.40;1.60;;;15.00;99.90;;;;;;5113059;28;20168;-77
2023/05/17 10:36:59;;;;;;;4.50;1.40;;;14.70;99.90;;;;;;5112417;28;20222;-77
2023/05/17 10:39:24;;;;;;;3.50;1.53;;;15.30;99.90;;;;;;5113707;28;20188;-77
2023/05/17 10:41:53;;;;;;;2.60;1.40;;;16.20;99.90;;;;;;5113900;28;20181;-77
2023/05/17 10:44:19;;;;;;;2.30;1.43;;;16.00;99.90;;;;;;5113684;28;20192;-77
2023/05/17 10:47:03;;;;;;;1.67;1.23;;;16.40;99.10;;;;;;5114119;28;20185;-77
2023/05/17 10:49:31;;;;;;;4.23;1.47;;;16.10;98.50;;;;;;5112862;28;20571;-76
2023/05/17 10:52:19;;;;;;;6.67;1.50;;;15.20;99.50;;;;;;5113492;28;20283;-77
2023/05/17 10:54:51;;;;;;;4.23;1.33;;;14.50;98.30;;;;;;5113449;28;20181;-77
2023/05/17 10:57:36;;;;;;;5.93;1.57;;;14.10;99.90;;;;;;5113619;28;20614;-78
2023/05/17 11:00:06;;;;;;;3.10;1.47;;;13.70;99.90;;;;;;5113817;28;20272;-77
2023/05/17 11:02:32;;;;;;;5.40;1.60;;;13.50;99.90;;;;;;5113169;28;20258;-77
2023/05/17 11:04:59;;;;;;;5.33;1.53;;;13.90;99.90;;;;;;5112249;28;20180;-77
2023/05/17 11:07:32;;;;;;;3.93;1.83;;;14.80;99.90;;;;;;5113484;28;20168;-77
2023/05/17 11:10:09;;;;;;;4.73;1.77;;;15.00;98.60;;;;;;5113225;28;20688;-77
2023/05/17 11:12:40;;;;;;;3.63;1.27;;;14.80;97.90;;;;;;5113216;28;20200;-77
2023/05/17 11:15:11;;;;;;;5.67;1.57;;;14.50;97.00;;;;;;5112388;28;20542;-77
2023/05/17 11:17:53;;;;;;;3.70;1.60;;;14.40;99.90;;;;;;5113284;28;20642;-77
2023/05/17 11:20:24;;;;;;;3.63;1.30;;;14.10;99.40;;;;;;5116838;28;20606;-78
2023/05/17 11:23:05;;;;;;;2.90;1.57;;;14.50;99.90;;;;;;5117513;28;20181;-77
2023/05/17 11:25:34;;;;;;;2.67;1.50;;;15.50;99.90;;;;;;5119225;28;20205;-77
2023/05/17 11:28:08;;;;;;;5.27;1.33;;;15.20;97.50;;;;;;5117119;28;20176;-77
2023/05/17 11:30:40;;;;;;;4.23;1.50;;;14.80;98.80;;;;;;5116823;28;20284;-77
2023/05/17 11:33:05;;;;;;;3.90;1.60;;;14.20;99.90;;;;;;5116931;28;20211;-77
2023/05/17 11:35:33;;;;;;;3.60;1.80;;;14.10;99.70;;;;;;5115666;28;20179;-77
2023/05/17 11:38:21;;;;;;;10.63;3.33;;;14.50;99.90;;;;;;5115669;28;20179;-77
2023/05/17 11:40:53;;;;;;;4.50;1.93;;;14.50;99.90;;;;;;5115498;28;20201;-77
2023/05/17 11:43:22;;;;;;;7.40;2.60;;;13.80;99.90;;;;;;5117585;28;20156;-77
2023/05/17 11:45:56;;;;;;;3.47;1.50;;;13.10;99.90;;;;;;5116617;28;20167;-77
2023/05/17 11:48:23;;;;;;;8.33;3.53;;;12.90;99.90;;;;;;5115377;28;20176;-77
2023/05/17 11:50:50;;;;;;;4.20;1.90;;;12.80;99.90;;;;;;5116258;28;20199;-77
2023/05/17 11:53:16;;;;;;;6.47;1.47;;;13.00;99.70;;;;;;5116322;28;20214;-77
2023/05/17 11:55:46;;;;;;;8.00;2.70;;;14.40;99.90;;;;;;5116586;28;20171;-77
2023/05/17 11:58:14;;;;;;;9.00;2.10;;;15.80;98.10;;;;;;5116424;28;20172;-77
2023/05/17 12:00:41;;;;;;;4.80;1.40;;;15.80;95.70;;;;;;5116253;28;20599;-77
2023/05/17 12:03:30;;;;;;;6.53;1.53;;;15.10;96.20;;;;;;5115054;28;20537;-77
2023/05/17 12:06:11;;;;;;;2.90;1.30;;;14.40;95.90;;;;;;5116140;28;20176;-76
2023/05/17 12:08:39;;;;;;;1.63;1.30;;;13.90;96.70;;;;;;5115559;28;20175;-76
2023/05/17 12:11:11;;;;;;;5.47;1.80;;;13.60;96.80;;;;;;5114549;28;20740;-76
2023/05/17 12:13:40;;;;;;;4.10;2.10;;;13.70;99.40;;;;;;5116315;28;20235;-77
2023/05/17 12:16:12;;;;;;;2.47;1.50;;;13.80;97.70;;;;;;5116262;28;20179;-76
2023/05/17 12:18:39;;;;;;;9.20;1.43;;;13.70;96.80;;;;;;5116522;28;20524;-76
2023/05/17 12:21:07;;;;;;;3.93;1.57;;;13.50;95.80;;;;;;5115820;28;20199;-76
2023/05/17 12:23:38;;;;;;;2.43;1.30;;;13.60;97.20;;;;;;5114883;28;20183;-78
2023/05/17 12:26:15;;;;;;;2.80;1.30;;;13.50;95.50;;;;;;5114834;28;20175;-77
2023/05/17 12:28:43;;;;;;;3.13;1.33;;;13.50;96.60;;;;;;5114359;28;20658;-77
2023/05/17 12:31:12;;;;;;;4.60;1.47;;;13.30;96.00;;;;;;5112711;28;20222;-77
2023/05/17 12:33:40;;;;;;;3.37;1.40;;;13.20;97.50;;;;;;5116331;27;20211;-77
2023/05/17 12:36:07;;;;;;;4.40;1.40;;;13.20;97.70;;;;;;5115780;28;20181;-76
2023/05/17 12:38:34;;;;;;;5.20;1.47;;;13.10;97.40;;;;;;5114587;28;20186;-76
2023/05/17 12:41:02;;;;;;;2.87;1.47;;;13.10;97.20;;;;;;5115339;28;20183;-77
2023/05/17 12:43:30;;;;;;;5.20;1.53;;;12.80;95.10;;;;;;5114171;28;20209;-76
2023/05/17 12:46:21;;;;;;;2.20;1.30;;;12.80;99.90;;;;;;5114229;28;20214;-76
2023/05/17 12:48:49;;;;;;;4.50;1.60;;;13.20;99.50;;;;;;5114162;28;20286;-76
2023/05/17 12:51:22;;;;;;;5.77;1.40;;;13.40;99.70;;;;;;5115583;28;20286;-76
2023/05/17 12:53:50;;;;;;;3.97;1.60;;;13.20;99.10;;;;;;5115504;28;20524;-76
2023/05/17 12:56:26;;;;;;;2.43;1.57;;;13.00;96.30;;;;;;5115209;28;20637;-76
2023/05/17 12:59:11;;;;;;;2.87;1.70;;;12.60;98.80;;;;;;5113896;28;20258;-77
2023/05/17 13:01:48;;;;;;;7.20;1.37;;;12.30;97.80;;;;;;5113613;28;20179;-77
2023/05/17 13:04:17;;;;;;;3.20;1.40;;;12.10;99.70;;;;;;5115614;28;20171;-77
2023/05/17 13:06:50;;;;;;;4.43;2.07;;;11.90;99.40;;;;;;5113638;28;20214;-76
2023/05/17 13:09:21;;;;;;;4.27;1.60;;;11.90;99.70;;;;;;5115012;28;20180;-76
2023/05/17 13:11:50;;;;;;;4.37;1.40;;;12.10;99.90;;;;;;5114956;28;20195;-76
2023/05/17 13:14:36;;;;;;;4.77;1.33;;;12.70;99.90;;;;;;5114102;28;20172;-76
2023/05/17 13:17:03;;;;;;;3.23;1.53;;;13.50;99.90;;;;;;5114887;28;20185;-77
2023/05/17 13:19:29;;;;;;;2.77;1.50;;;13.80;99.30;;;;;;5113315;28;20203;-76
2023/05/17 13:21:55;;;;;;;2.57;1.53;;;13.60;96.60;;;;;;5113479;28;20256;-76
2023/05/17 13:24:21;;;;;;;4.80;1.23;;;13.50;96.90;;;;;;5114724;28;20270;-77
2023/05/17 13:26:46;;;;;;;2.63;1.37;;;13.30;97.20;;;;;;5114581;28;20198;-77
2023/05/17 13:29:12;;;;;;;3.73;1.50;;;13.20;99.10;;;;;;5115015;28;20172;-77
2023/05/17 13:31:38;;;;;;;3.20;1.50;;;13.30;98.90;;;;;;5114377;28;20199;-77
2023/05/17 13:34:03;;;;;;;3.97;1.63;;;13.20;98.10;;;;;;5114685;28;20161;-77
2023/05/17 13:36:29;;;;;;;2.97;1.43;;;13.10;98.10;;;;;;5114525;28;20184;-77
2023/05/17 13:38:55;;;;;;;2.50;1.60;;;12.90;98.90;;;;;;5113198;28;20180;-78
2023/05/17 13:41:21;;;;;;;5.13;1.70;;;12.70;99.90;;;;;;5112502;28;20196;-77
2023/05/17 13:43:47;;;;;;;4.60;1.70;;;12.30;99.90;;;;;;5112971;28;20180;-77
2023/05/17 13:46:12;;;;;;;7.10;1.83;;;12.10;99.90;;;;;;5114472;28;20264;-77
2023/05/17 13:48:38;;;;;;;4.83;1.70;;;12.00;99.90;;;;;;5114278;28;20537;-77
2023/05/17 13:51:04;;;;;;;2.60;1.53;;;11.90;99.90;;;;;;5113984;27;20244;-77
2023/05/17 13:53:29;;;;;;;3.03;1.30;;;11.90;99.90;;;;;;5114092;28;20203;-77
2023/05/17 13:55:55;;;;;;;5.77;1.80;;;11.90;99.90;;;;;;5114355;28;20168;-77
2023/05/17 13:58:21;;;;;;;3.20;1.40;;;12.00;99.90;;;;;;5114013;28;20167;-77
2023/05/17 14:00:46;;;;;;;3.70;1.50;;;12.20;99.90;;;;;;5113754;28;20268;-77
2023/05/17 14:03:12;;;;;;;4.10;1.60;;;12.40;99.90;;;;;;5112814;28;20270;-77
2023/05/17 14:05:38;;;;;;;2.40;1.57;;;12.70;99.90;;;;;;5112822;28;20175;-78
2023/05/17 14:08:04;;;;;;;2.33;1.50;;;13.00;99.90;;;;;;5112750;28;20181;-78
2023/05/17 14:10:30;;;;;;;3.43;1.40;;;13.70;99.90;;;;;;5112665;28;20222;-77
2023/05/17 14:12:56;;;;;;;4.30;1.53;;;14.90;99.30;;;;;;5113827;28;20658;-77
2023/05/17 14:15:22;;;;;;;2.10;1.30;;;16.00;94.20;;;;;;5112461;28;20182;-77
2023/05/17 14:17:48;;;;;;;4.17;1.73;;;16.70;97.00;;;;;;5114035;28;20168;-77
2023/05/17 14:20:14;;;;;;;4.43;1.70;;;16.30;93.30;;;;;;5113710;28;20188;-78
2023/05/17 14:22:41;;;;;;;5.37;1.80;;;15.60;92.80;;;;;;5113989;28;20231;-77
2023/05/17 14:25:07;;;;;;;3.23;1.80;;;14.70;94.60;;;;;;5113970;28;20175;-77
2023/05/17 14:27:33;;;;;;;4.73;1.70;;;13.80;96.50;;;;;;5112797;28;20206;-77
2023/05/17 14:30:00;;;;;;;6.80;1.90;;;13.30;96.10;;;;;;5112137;28;20696;-77
2023/05/17 14:32:26;;;;;;;4.83;1.60;;;12.90;97.10;;;;;;5113382;28;20207;-77
2023/05/17 14:34:52;;;;;;;2.50;1.80;;;12.70;97.80;;;;;;5113561;28;20171;-77
2023/05/17 14:37:17;;;;;;;3.03;1.83;;;12.60;99.90;;;;;;5113497;28;20178;-77
2023/05/17 14:39:43;;;;;;;4.67;1.83;;;12.60;97.80;;;;;;5113406;28;20588;-77
2023/05/17 14:42:09;;;;;;;4.20;1.67;;;12.60;99.90;;;;;;5113361;28;20182;-77
2023/05/17 14:44:37;;;;;;;8.13;2.00;;;12.70;98.00;;;;;;5113397;28;20228;-77
2023/05/17 14:47:07;;;;;;;3.27;1.90;;;12.60;97.10;;;;;;5112042;28;20633;-77
2023/05/17 14:49:33;;;;;;;3.53;2.27;;;12.50;97.60;;;;;;5113211;28;20218;-77
2023/05/17 14:51:58;;;;;;;5.07;2.17;;;12.40;99.30;;;;;;5112023;28;20570;-77
2023/05/17 14:54:28;;;;;;;4.20;1.83;;;12.50;98.90;;;;;;5115625;28;20220;-77
2023/05/17 14:56:54;;;;;;;3.97;2.20;;;12.50;99.20;;;;;;5117493;28;20196;-77
2023/05/17 14:59:20;;;;;;;4.63;2.00;;;12.50;99.90;;;;;;5117297;28;20175;-77
2023/05/17 15:01:46;;;;;;;3.83;1.47;;;12.50;99.50;;;;;;5117130;28;20187;-77
2023/05/17 15:04:12;;;;;;;4.17;1.73;;;12.50;99.80;;;;;;5115954;28;20186;-78
2023/05/17 15:06:37;;;;;;;5.57;1.87;;;12.50;99.90;;;;;;5117292;28;20167;-77
2023/05/17 15:09:03;;;;;;;5.80;1.80;;;;;;;;;;5117239;28;20254;-77
2023/05/17 15:11:30;;;;;;;5.57;2.03;;;12.40;99.90;;;;;;5118372;28;20683;-79
2023/05/17 15:13:56;;;;;;;3.63;2.17;;;12.30;99.90;;;;;;5117801;28;20168;-77
2023/05/17 15:16:21;;;;;;;4.83;2.20;;;12.20;99.90;;;;;;5117378;28;20168;-77
2023/05/17 15:18:47;;;;;;;4.70;2.13;;;12.10;99.90;;;;;;5115527;28;20579;-76
2023/05/17 15:21:13;;;;;;;4.63;2.30;;;12.00;99.90;;;;;;5116880;28;20184;-77
2023/05/17 15:23:39;;;;;;;6.07;2.30;;;12.00;99.90;;;;;;5117171;28;20454;-77
2023/05/17 15:26:04;;;;;;;4.50;2.40;;;12.10;99.90;;;;;;5115618;28;20223;-77
2023/05/17 15:28:30;;;;;;;5.60;2.20;;;12.10;99.90;;;;;;5115761;28;20212;-76
2023/05/17 15:31:05;;;;;;;5.93;2.30;;;12.30;99.90;;;;;;5116620;28;20610;-76
2023/05/17 15:33:31;;;;;;;4.03;2.07;;;12.70;99.90;;;;;;5116546;28;20716;-77
2023/05/17 15:35:57;;;;;;;5.60;2.13;;;13.00;99.90;;;;;;5116165;28;20225;-78
2023/05/17 15:38:23;;;;;;;5.77;2.80;;;13.10;99.90;;;;;;5116813;28;20518;-76
2023/05/17 15:41:02;;;;;;;7.00;2.43;;;12.90;99.90;;;;;;5115144;28;20187;-77
2023/05/17 15:43:28;;;;;;;4.63;2.30;;;12.70;99.90;;;;;;5115527;28;20170;-77
2023/05/17 15:45:53;;;;;;;6.47;2.33;;;12.50;99.90;;;;;;5116978;28;20203;-77
2023/05/17 15:48:21;;;;;;;5.57;2.60;;;12.30;99.90;;;;;;5116520;27;20646;-77
2023/05/17 15:50:47;;;;;;;4.20;1.93;;;12.40;99.90;;;;;;5116409;28;20501;-77
2023/05/17 15:53:13;;;;;;;4.40;2.10;;;12.40;99.90;;;;;;5116373;28;20693;-77
2023/05/17 15:55:39;;;;;;;5.40;2.33;;;12.30;99.90;;;;;;5115117;28;20224;-77
2023/05/17 15:58:08;;;;;;;5.23;2.20;;;12.30;99.90;;;;;;5116429;28;20171;-77
2023/05/17 16:00:35;;;;;;;5.93;2.13;;;12.20;99.90;;;;;;5114868;28;20627;-77
2023/05/17 16:03:00;;;;;;;3.47;1.90;;;12.00;99.90;;;;;;5116278;28;20680;-77
2023/05/17 16:05:26;;;;;;;3.43;2.27;;;11.70;99.90;;;;;;5114484;28;20175;-77
2023/05/17 16:07:52;;;;;;;4.80;2.20;;;11.60;99.90;;;;;;5116126;28;20183;-77
2023/05/17 16:10:17;;;;;;;4.87;2.17;;;11.40;99.90;;;;;;5115952;28;20194;-78
2023/05/17 16:12:43;;;;;;;8.27;3.13;;;11.20;99.90;;;;;;5116056;28;20199;-77
2023/05/17 17:05:13;;;;;;;5.50;3.67;;;10.60;99.90;;;;;;5131627;27;20273;-76
2023/05/17 17:15:51;;;;;;;5.67;3.20;;;10.70;99.90;;;;;;5131930;27;20270;-76
